Time;durP1;ratioP1;P1;durP2;ratioP2;P2;SDS_P1;SDS_P2;PMS_P1;PMS_P2;Temp;Humidity;BMP_temperature;BMP_pressure;BME280_temperature;BME280_humidity;BME280_pressure;Samples;Min_cycle;Max_cycle;Signal;HPM_P1;HPM_P2
2023/10/23 00:00:57;;;;;;;2.60;2.40;;;;;;;;;;5072940;28;20686;-82
2023/10/23 00:03:24;;;;;;;3.00;2.20;;;;;;;;;;5071935;28;20213;-82
2023/10/23 00:05:51;;;;;;;5.70;2.60;;;;;;;;;;5072073;28;20234;-83
2023/10/23 00:08:18;;;;;;;4.70;2.43;;;;;;;;;;5072728;28;20202;-83
2023/10/23 00:10:46;;;;;;;2.77;2.30;;;;;;;;;;5071058;28;20245;-83
2023/10/23 00:13:13;;;;;;;2.97;2.70;;;;;;;;;;5072188;28;20195;-83
2023/10/23 00:15:40;;;;;;;5.43;2.37;;;;;;;;;;5058341;28;20233;-84
2023/10/23 00:18:07;;;;;;;3.93;2.43;;;;;;;;;;5050859;28;20213;-84
2023/10/23 00:20:35;;;;;;;3.30;2.60;;;;;;;;;;5050135;28;20241;-84
2023/10/23 00:23:02;;;;;;;3.80;2.60;;;;;;;;;;5050748;28;20206;-84
2023/10/23 00:25:29;;;;;;;3.20;2.47;;;;;;;;;;5050560;28;20233;-84
2023/10/23 00:27:57;;;;;;;4.50;2.60;;;;;;;;;;5050940;28;20279;-84
2023/10/23 00:30:24;;;;;;;3.50;2.63;;;;;;;;;;5050430;28;20700;-85
2023/10/23 00:32:51;;;;;;;3.10;2.70;;;;;;;;;;5050809;28;20206;-84
2023/10/23 00:35:18;;;;;;;4.90;2.37;;;;;;;;;;5050579;28;20209;-85
2023/10/23 00:37:45;;;;;;;3.20;2.23;;;;;;;;;;5049906;28;20221;-84
2023/10/23 00:40:13;;;;;;;3.73;2.37;;;;;;;;;;5050129;28;20300;-84
2023/10/23 00:42:40;;;;;;;5.37;2.37;;;;;;;;;;5050028;28;20206;-84
2023/10/23 00:45:09;;;;;;;2.33;2.10;;;;;;;;;;5050462;28;20233;-85
2023/10/23 00:47:36;;;;;;;2.43;2.23;;;;;;;;;;5051152;28;20201;-85
2023/10/23 00:50:04;;;;;;;4.73;2.23;;;;;;;;;;5050639;28;20236;-85
2023/10/23 00:52:31;;;;;;;2.47;2.27;;;;;;;;;;5051098;28;20202;-84
2023/10/23 00:54:58;;;;;;;6.00;2.50;;;;;;;;;;5050710;28;20273;-84
2023/10/23 00:57:26;;;;;;;3.13;2.37;;;;;;;;;;5050366;28;20225;-84
2023/10/23 00:59:53;;;;;;;3.93;2.70;;;;;;;;;;5050119;28;20229;-84
2023/10/23 01:02:21;;;;;;;4.03;2.30;;;;;;;;;;5033550;28;20583;-85
2023/10/23 01:04:48;;;;;;;4.27;2.23;;;;;;;;;;5043746;28;20711;-85
2023/10/23 01:07:15;;;;;;;3.97;2.40;;;;;;;;;;5045803;28;20244;-84
2023/10/23 01:09:42;;;;;;;3.80;2.43;;;;;;;;;;5046012;28;20221;-84
2023/10/23 01:12:10;;;;;;;2.23;2.13;;;;;;;;;;5050322;28;20230;-84
2023/10/23 01:14:37;;;;;;;2.93;2.63;;;;;;;;;;5050762;28;20209;-84
2023/10/23 01:17:04;;;;;;;2.73;2.40;;;;;;;;;;5049858;28;20234;-84
2023/10/23 01:19:32;;;;;;;3.37;2.10;;;;;;;;;;5049754;28;20228;-84
2023/10/23 01:21:59;;;;;;;2.80;2.33;;;;;;;;;;5049312;28;20222;-84
2023/10/23 01:24:27;;;;;;;2.23;2.13;;;;;;;;;;5049250;28;20218;-84
2023/10/23 01:26:56;;;;;;;5.00;2.30;;;;;;;;;;5052505;28;20226;-84
2023/10/23 01:29:23;;;;;;;2.47;2.30;;;;;;;;;;5053510;28;20233;-84
2023/10/23 01:31:50;;;;;;;2.30;2.10;;;;;;;;;;5053246;28;20233;-84
2023/10/23 01:34:17;;;;;;;7.43;2.00;;;;;;;;;;5053862;28;20594;-84
2023/10/23 01:36:44;;;;;;;4.27;2.20;;;;;;;;;;5052716;28;20746;-84
2023/10/23 01:39:11;;;;;;;2.27;2.10;;;;;;;;;;5052668;28;20238;-85
2023/10/23 01:41:38;;;;;;;2.87;2.53;;;;;;;;;;5052662;28;20228;-83
2023/10/23 01:44:07;;;;;;;4.57;2.30;;;;;;;;;;5053978;28;20220;-84
2023/10/23 01:46:34;;;;;;;2.23;2.00;;;;;;;;;;5053532;28;20238;-84
2023/10/23 01:49:01;;;;;;;3.00;2.30;;;;;;;;;;5054366;28;20218;-85
2023/10/23 01:51:28;;;;;;;4.37;2.03;;;;;;;;;;5053710;28;20249;-84
2023/10/23 01:53:55;;;;;;;2.30;2.10;;;;;;;;;;5054529;28;20202;-84
2023/10/23 01:56:23;;;;;;;2.10;2.00;;;;;;;;;;5053820;28;20264;-84
2023/10/23 01:58:52;;;;;;;2.50;2.30;;;;;;;;;;5040575;28;20241;-84
2023/10/23 02:01:21;;;;;;;5.07;2.53;;;;;;;;;;5052854;28;20605;-84
2023/10/23 02:03:48;;;;;;;4.13;2.47;;;;;;;;;;5053251;28;20248;-84
2023/10/23 02:06:15;;;;;;;2.40;2.20;;;;;;;;;;5052841;28;20237;-84
2023/10/23 02:08:42;;;;;;;2.73;2.30;;;;;;;;;;5052923;28;20241;-84
2023/10/23 02:11:09;;;;;;;7.40;2.50;;;;;;;;;;5051836;28;20313;-84
2023/10/23 02:13:37;;;;;;;3.70;2.20;;;;;;;;;;5053286;28;20225;-84
2023/10/23 02:16:04;;;;;;;5.20;2.03;;;;;;;;;;5052486;28;20230;-84
2023/10/23 02:18:32;;;;;;;2.37;2.10;;;;;;;;;;5053011;28;20237;-84
2023/10/23 02:20:59;;;;;;;2.50;2.30;;;;;;;;;;5052557;28;20552;-84
2023/10/23 02:23:26;;;;;;;4.30;2.20;;;;;;;;;;5053311;28;20241;-84
2023/10/23 02:25:53;;;;;;;2.73;2.00;;;;;;;;;;5052950;28;20236;-84
2023/10/23 02:28:20;;;;;;;2.40;2.20;;;;;;;;;;5053298;28;20202;-84
2023/10/23 02:30:47;;;;;;;2.23;2.07;;;;;;;;;;5052845;28;20225;-84
2023/10/23 02:33:14;;;;;;;3.83;2.20;;;;;;;;;;5053233;28;20210;-84
2023/10/23 02:35:44;;;;;;;3.67;2.30;;;;;;;;;;5052805;28;20786;-84
2023/10/23 02:38:11;;;;;;;2.97;1.87;;;;;;;;;;5052941;28;20221;-84
2023/10/23 02:40:38;;;;;;;3.23;2.33;;;;;;;;;;5052815;28;20230;-84
2023/10/23 02:43:05;;;;;;;3.07;2.20;;;;;;;;;;5052310;28;20217;-83
2023/10/23 02:45:33;;;;;;;2.60;2.27;;;;;;;;;;5051598;28;20601;-83
2023/10/23 02:48:00;;;;;;;4.03;2.40;;;;;;;;;;5051752;28;20245;-83
2023/10/23 02:50:28;;;;;;;3.87;2.10;;;;;;;;;;5051304;28;20249;-83
2023/10/23 02:52:56;;;;;;;2.40;2.03;;;;;;;;;;5051370;28;20217;-84
2023/10/23 02:55:23;;;;;;;2.50;2.30;;;;;;;;;;5051565;28;20233;-84
2023/10/23 02:57:50;;;;;;;3.43;2.00;;;;;;;;;;5052158;28;20198;-84
2023/10/23 03:00:18;;;;;;;2.30;2.10;;;;;;;;;;5051085;28;20230;-84
2023/10/23 03:02:45;;;;;;;2.27;1.87;;;;;;;;;;5051503;28;20209;-84
2023/10/23 03:05:13;;;;;;;2.10;2.00;;;;;;;;;;5051120;28;20238;-84
2023/10/23 03:07:40;;;;;;;2.90;2.17;;;;;;;;;;5051700;28;20550;-84
2023/10/23 03:10:09;;;;;;;2.23;2.03;;;;;;;;;;5050702;28;20226;-85
2023/10/23 03:12:37;;;;;;;7.33;2.47;;;;;;;;;;5051050;28;20574;-83
2023/10/23 03:15:04;;;;;;;6.23;2.00;;;;;;;;;;5050923;28;20686;-85
2023/10/23 03:17:32;;;;;;;5.93;2.20;;;;;;;;;;5051721;28;20214;-84
2023/10/23 03:19:59;;;;;;;2.53;2.33;;;;;;;;;;5050917;28;20230;-83
2023/10/23 03:22:26;;;;;;;2.50;2.30;;;;;;;;;;5054542;28;20753;-84
2023/10/23 03:24:53;;;;;;;2.60;2.40;;;;;;;;;;5051279;28;20228;-84
2023/10/23 03:27:21;;;;;;;3.60;2.10;;;;;;;;;;5050803;28;20241;-83
2023/10/23 03:29:48;;;;;;;2.67;2.40;;;;;;;;;;5036741;28;20229;-84
2023/10/23 03:32:15;;;;;;;5.37;2.33;;;;;;;;;;5062674;28;20237;-83
2023/10/23 03:34:42;;;;;;;2.10;2.00;;;;;;;;;;5051110;28;20536;-83
2023/10/23 03:37:09;;;;;;;2.20;2.10;;;;;;;;;;5050759;28;20241;-84
2023/10/23 03:39:36;;;;;;;2.50;2.30;;;;;;;;;;5051034;28;20222;-84
2023/10/23 03:42:04;;;;;;;4.13;2.00;;;;;;;;;;5051039;28;20229;-84
2023/10/23 03:44:32;;;;;;;3.13;2.20;;;;;;;;;;5051684;28;20213;-83
2023/10/23 03:46:59;;;;;;;4.13;2.20;;;;;;;;;;5051100;28;20229;-84
2023/10/23 03:49:26;;;;;;;3.20;2.07;;;;;;;;;;5050844;28;20224;-84
2023/10/23 03:51:53;;;;;;;2.23;2.10;;;;;;;;;;5050776;28;20260;-84
2023/10/23 03:54:21;;;;;;;2.50;2.27;;;;;;;;;;5051593;28;20206;-84
2023/10/23 03:56:48;;;;;;;2.70;2.00;;;;;;;;;;5051151;28;20241;-84
2023/10/23 03:59:15;;;;;;;2.50;2.30;;;;;;;;;;5054419;28;20226;-86
2023/10/23 04:01:44;;;;;;;6.20;2.57;;;;;;;;;;5050516;28;20230;-84
2023/10/23 04:04:11;;;;;;;2.93;2.30;;;;;;;;;;5056974;28;20209;-84
2023/10/23 04:06:40;;;;;;;3.03;2.43;;;;;;;;;;5050588;28;20238;-84
2023/10/23 04:09:07;;;;;;;4.70;2.23;;;;;;;;;;5051374;28;20226;-84
2023/10/23 04:11:34;;;;;;;3.80;2.47;;;;;;;;;;5050721;28;20264;-84
2023/10/23 04:14:01;;;;;;;3.30;2.60;;;;;;;;;;5051671;28;20216;-85
2023/10/23 04:16:28;;;;;;;2.50;2.30;;;;;;;;;;5042555;28;20230;-84
2023/10/23 04:18:57;;;;;;;4.00;2.40;;;;;;;;;;5030951;28;20222;-84
2023/10/23 04:21:24;;;;;;;5.03;2.30;;;;;;;;;;5030268;28;20254;-84
2023/10/23 04:23:51;;;;;;;2.13;2.03;;;;;;;;;;5031280;28;20264;-84
2023/10/23 04:26:18;;;;;;;7.93;4.40;;;;;;;;;;5030678;28;20245;-85
2023/10/23 04:28:45;;;;;;;3.23;2.90;;;;;;;;;;5030693;28;20238;-84
2023/10/23 04:31:12;;;;;;;5.70;2.70;;;;;;;;;;5033269;28;20234;-85
2023/10/23 04:33:39;;;;;;;4.73;2.33;;;;;;;;;;5043783;28;20222;-84
2023/10/23 04:36:08;;;;;;;2.57;2.20;;;;;;;;;;5049742;28;20221;-84
2023/10/23 04:38:35;;;;;;;2.30;2.20;;;;;;;;;;5050007;28;20226;-84
2023/10/23 04:41:02;;;;;;;2.10;2.00;;;;;;;;;;5050264;28;20236;-84
2023/10/23 04:43:29;;;;;;;3.23;2.30;;;;;;;;;;5050962;28;20254;-84
2023/10/23 04:45:57;;;;;;;4.63;4.13;;;;;;;;;;5049758;28;20672;-85
2023/10/23 04:48:25;;;;;;;3.10;2.80;;;;;;;;;;5050245;28;20707;-85
2023/10/23 04:50:52;;;;;;;3.20;2.90;;;;;;;;;;5050137;28;20297;-85
2023/10/23 04:53:20;;;;;;;2.80;2.60;;;;;;;;;;5050264;28;20194;-85
2023/10/23 04:55:47;;;;;;;2.87;2.27;;;;;;;;;;5050089;28;20229;-85
2023/10/23 04:58:14;;;;;;;3.07;2.40;;;;;;;;;;5049956;28;20221;-85
2023/10/23 05:00:41;;;;;;;3.77;2.40;;;;;;;;;;5052701;28;20267;-84
2023/10/23 05:03:09;;;;;;;3.53;2.50;;;;;;;;;;5053704;28;20213;-84
2023/10/23 05:05:36;;;;;;;2.40;2.20;;;;;;;;;;5053814;28;20267;-85
2023/10/23 05:08:04;;;;;;;2.37;2.17;;;;;;;;;;5054551;28;20213;-85
2023/10/23 05:10:33;;;;;;;2.67;2.47;;;;;;;;;;5054220;28;20287;-85
2023/10/23 05:13:02;;;;;;;2.60;2.40;;;;;;;;;;5054000;28;20212;-86
2023/10/23 05:15:30;;;;;;;3.70;2.40;;;;;;;;;;5053557;28;20230;-85
2023/10/23 05:17:57;;;;;;;2.30;2.20;;;;;;;;;;5054262;28;20213;-86
2023/10/23 05:20:24;;;;;;;3.00;2.40;;;;;;;;;;5053205;28;20234;-85
2023/10/23 05:22:51;;;;;;;2.40;2.07;;;;;;;;;;5053425;28;20684;-86
2023/10/23 05:25:18;;;;;;;5.73;2.50;;;;;;;;;;5053345;28;20210;-86
2023/10/23 05:27:47;;;;;;;2.37;2.17;;;;;;;;;;5054108;28;20206;-85
2023/10/23 05:30:14;;;;;;;2.67;2.47;;;;;;;;;;5053140;28;20226;-85
2023/10/23 05:32:41;;;;;;;2.50;2.00;;;;;;;;;;5053737;28;20206;-86
2023/10/23 05:35:08;;;;;;;1.93;1.83;;;;;;;;;;5053070;28;20206;-85
2023/10/23 05:37:36;;;;;;;4.40;2.83;;;;;;;;;;5053896;28;20236;-85
2023/10/23 05:40:04;;;;;;;2.60;2.50;;;;;;;;;;5048990;28;20229;-88
2023/10/23 05:42:31;;;;;;;3.53;2.60;;;;;;;;;;5053841;28;20223;-88
2023/10/23 05:45:02;;;;;;;3.50;2.37;;;;;;;;;;5053793;28;20248;-88
2023/10/23 05:47:29;;;;;;;2.33;2.13;;;;;;;;;;5052993;28;20308;-85
2023/10/23 05:49:56;;;;;;;2.20;2.10;;;;;;;;;;5053583;28;20237;-85
2023/10/23 05:52:23;;;;;;;3.73;2.17;;;;;;;;;;5052933;28;20641;-87
2023/10/23 05:54:50;;;;;;;4.53;2.57;;;;;;;;;;5054205;28;20202;-86
2023/10/23 05:57:17;;;;;;;3.63;2.47;;;;;;;;;;5055244;28;20237;-85
2023/10/23 05:59:44;;;;;;;2.20;2.10;;;;;;;;;;5055469;28;20229;-86
2023/10/23 06:02:13;;;;;;;2.30;2.20;;;;;;;;;;5052620;28;20241;-86
2023/10/23 06:04:43;;;;;;;9.27;2.40;;;;;;;;;;5053510;28;20218;-86
2023/10/23 06:07:11;;;;;;;2.30;2.20;;;;;;;;;;5053184;28;20230;-85
2023/10/23 06:09:38;;;;;;;2.70;2.27;;;;;;;;;;5053965;28;20245;-86
2023/10/23 06:12:06;;;;;;;3.47;2.70;;;;;;;;;;5051815;28;20240;-85
2023/10/23 06:14:33;;;;;;;2.40;2.23;;;;;;;;;;5054084;28;20210;-86
2023/10/23 06:17:00;;;;;;;4.70;2.40;;;;;;;;;;5053466;28;20233;-86
2023/10/23 06:19:30;;;;;;;2.47;2.27;;;;;;;;;;5055356;28;20214;-85
2023/10/23 06:21:59;;;;;;;3.73;2.53;;;;;;;;;;5052133;28;20233;-85
2023/10/23 06:24:26;;;;;;;3.67;2.40;;;;;;;;;;5052771;28;20202;-85
2023/10/23 06:26:53;;;;;;;2.60;2.40;;;;;;;;;;5052732;28;20245;-86
2023/10/23 06:29:20;;;;;;;2.57;2.40;;;;;;;;;;5052935;28;20236;-85
2023/10/23 06:31:47;;;;;;;2.60;2.40;;;;;;;;;;5052620;28;20237;-85
2023/10/23 06:34:14;;;;;;;2.37;2.17;;;;;;;;;;5052393;28;20241;-86
2023/10/23 06:36:43;;;;;;;2.20;2.10;;;;;;;;;;5052214;28;20742;-85
2023/10/23 06:39:12;;;;;;;2.40;2.30;;;;;;;;;;5053642;28;20266;-85
2023/10/23 06:41:39;;;;;;;2.37;2.17;;;;;;;;;;5052148;28;20711;-85
2023/10/23 06:44:06;;;;;;;2.43;2.20;;;;;;;;;;5052557;28;20687;-85
2023/10/23 06:46:34;;;;;;;2.77;2.57;;;;;;;;;;5052014;28;20256;-86
2023/10/23 06:49:01;;;;;;;2.40;2.30;;;;;;;;;;5052169;28;20288;-85
2023/10/23 06:51:28;;;;;;;2.40;2.30;;;;;;;;;;5052381;28;20244;-85
2023/10/23 06:53:56;;;;;;;3.00;2.43;;;;;;;;;;5052495;28;20210;-85
2023/10/23 06:56:23;;;;;;;2.73;2.10;;;;;;;;;;5051957;28;20239;-85
2023/10/23 06:58:50;;;;;;;5.33;2.40;;;;;;;;;;5052484;28;20316;-85
2023/10/23 07:01:17;;;;;;;3.23;2.83;;;;;;;;;;5051728;28;20234;-85
2023/10/23 07:03:44;;;;;;;3.43;2.30;;;;;;;;;;5053992;28;20213;-86
2023/10/23 07:06:11;;;;;;;2.87;2.40;;;;;;;;;;5052120;28;20238;-85
2023/10/23 07:08:39;;;;;;;2.40;2.20;;;;;;;;;;5053417;28;20241;-85
2023/10/23 07:11:14;;;;;;;2.93;2.67;;;;;;;;;;5051310;28;20243;-85
2023/10/23 07:13:41;;;;;;;2.50;2.40;;;;;;;;;;5052414;28;20189;-85
2023/10/23 07:16:09;;;;;;;2.57;2.37;;;;;;;;;;5051509;28;20230;-85
2023/10/23 07:18:36;;;;;;;6.57;2.90;;;;;;;;;;5051865;28;20571;-86
2023/10/23 07:21:03;;;;;;;3.57;2.87;;;;;;;;;;5051199;28;20599;-86
2023/10/23 07:23:30;;;;;;;4.53;2.93;;;;;;;;;;5052334;28;20228;-86
2023/10/23 07:26:01;;;;;;;3.50;3.10;;;;;;;;;;5051996;28;20708;-86
2023/10/23 07:28:30;;;;;;;4.90;2.90;;;;;;;;;;5052308;28;20238;-86
2023/10/23 07:30:57;;;;;;;4.50;3.10;;;;;;;;;;5052385;28;20240;-86
2023/10/23 07:33:24;;;;;;;3.70;3.20;;;;;;;;;;5052541;28;20328;-86
2023/10/23 07:36:00;;;;;;;3.33;3.03;;;;;;;;;;5051959;28;20724;-85
2023/10/23 07:38:27;;;;;;;3.40;3.07;;;;;;;;;;5052474;28;20205;-86
2023/10/23 07:40:54;;;;;;;4.17;3.77;;;;;;;;;;5052497;28;20233;-85
2023/10/23 07:43:21;;;;;;;4.73;4.13;;;;;;;;;;5052342;28;20217;-85
2023/10/23 07:45:49;;;;;;;5.63;3.77;;;;;;;;;;5051909;28;20720;-85
2023/10/23 07:48:16;;;;;;;5.40;3.87;;;;;;;;;;5051930;28;20892;-85
2023/10/23 07:50:44;;;;;;;8.03;4.30;;;;;;;;;;5051887;28;20240;-85
2023/10/23 07:53:11;;;;;;;7.27;3.60;;;;;;;;;;5051689;28;20202;-85
2023/10/23 07:55:38;;;;;;;9.10;4.03;;;;;;;;;;5051092;28;20329;-85
2023/10/23 07:58:05;;;;;;;4.50;3.97;;;;;;;;;;5051367;28;20202;-85
2023/10/23 08:00:32;;;;;;;5.27;4.10;;;;;;;;;;5051242;28;20233;-85
2023/10/23 08:03:00;;;;;;;7.27;4.40;;;;;;;;;;5051818;28;20210;-85
2023/10/23 08:05:27;;;;;;;6.40;4.10;;;;;;;;;;5050884;28;20296;-85
2023/10/23 08:07:55;;;;;;;6.87;3.87;;;;;;;;;;5053467;28;20606;-85
2023/10/23 08:10:22;;;;;;;4.00;3.60;;;;;;;;;;5052260;28;20585;-85
2023/10/23 08:12:49;;;;;;;4.30;3.90;;;;;;;;;;5052809;28;20220;-85
2023/10/23 08:15:17;;;;;;;4.33;3.93;;;;;;;;;;5051429;28;20206;-84
2023/10/23 08:17:44;;;;;;;6.00;4.33;;;;;;;;;;5051877;28;20220;-84
2023/10/23 08:20:13;;;;;;;11.57;4.57;;;;;;;;;;5051032;28;20230;-85
2023/10/23 08:22:40;;;;;;;14.43;4.50;;;;;;;;;;5051678;28;20616;-85
2023/10/23 08:25:07;;;;;;;4.27;3.97;;;;;;;;;;5051100;28;20207;-85
2023/10/23 08:27:34;;;;;;;6.53;4.47;;;;;;;;;;5052215;28;20317;-85
2023/10/23 08:30:02;;;;;;;9.23;4.93;;;;;;;;;;5051263;28;20226;-85
2023/10/23 08:32:29;;;;;;;6.30;5.13;;;;;;;;;;5051047;28;20226;-84
2023/10/23 08:34:56;;;;;;;5.40;4.83;;;;;;;;;;5054808;28;20201;-85
2023/10/23 08:37:25;;;;;;;6.13;5.00;;;;;;;;;;5057255;28;20230;-85
2023/10/23 08:39:52;;;;;;;4.77;4.27;;;;;;;;;;5058059;28;20602;-85
2023/10/23 08:42:19;;;;;;;7.57;4.83;;;;;;;;;;5057483;28;20244;-85
2023/10/23 08:44:46;;;;;;;6.33;4.53;;;;;;;;;;5058057;28;20216;-85
2023/10/23 08:47:13;;;;;;;13.67;4.80;;;;;;;;;;5057236;28;20240;-85
2023/10/23 08:49:41;;;;;;;5.13;4.27;;;;;;;;;;5057913;28;20233;-86
2023/10/23 08:52:11;;;;;;;7.83;4.33;;;;;;;;;;5057322;28;20240;-85
2023/10/23 08:54:40;;;;;;;5.03;4.00;;;;;;;;;;5058497;28;20244;-85
2023/10/23 08:57:08;;;;;;;12.43;4.97;;;;;;;;;;5057350;28;20715;-85
2023/10/23 08:59:35;;;;;;;7.80;4.90;;;;;;;;;;5058109;28;20229;-85
2023/10/23 09:02:03;;;;;;;7.20;5.10;;;;;;;;;;5060355;28;20229;-85
2023/10/23 09:04:30;;;;;;;5.47;4.97;;;;;;;;;;5077740;28;20672;-85
2023/10/23 09:06:59;;;;;;;10.87;5.13;;;;;;;;;;5077356;28;20229;-84
2023/10/23 09:09:26;;;;;;;6.73;4.43;;;;;;;;;;5078019;28;20225;-84
2023/10/23 09:11:55;;;;;;;7.10;4.77;;;;;;;;;;5077012;28;20240;-85
2023/10/23 09:14:25;;;;;;;4.63;4.13;;;;;;;;;;5077790;28;20201;-85
2023/10/23 09:16:54;;;;;;;6.70;4.40;;;;;;;;;;5077267;28;20225;-84
2023/10/23 09:19:25;;;;;;;5.30;4.40;;;;;;;;;;5077539;28;20225;-84
2023/10/23 09:21:54;;;;;;;5.00;4.50;;;;;;;;;;5077157;28;20589;-84
2023/10/23 09:24:21;;;;;;;8.20;4.13;;;;;;;;;;5077547;28;20208;-85
2023/10/23 09:26:48;;;;;;;6.20;4.07;;;;;;;;;;5077121;28;20236;-84
2023/10/23 09:29:17;;;;;;;7.67;3.93;;;;;;;;;;5077810;28;20259;-85
2023/10/23 09:31:44;;;;;;;6.23;3.93;;;;;;;;;;5077715;28;20253;-84
2023/10/23 09:34:12;;;;;;;7.27;3.93;;;;;;;;;;5078198;28;20206;-85
2023/10/23 09:36:39;;;;;;;8.40;4.30;;;;;;;;;;5078132;28;20600;-84
2023/10/23 09:39:06;;;;;;;5.87;3.50;;;;;;;;;;5077337;28;20233;-85
2023/10/23 09:41:34;;;;;;;3.80;3.47;;;;;;;;;;5077091;28;20240;-85
2023/10/23 09:44:03;;;;;;;5.90;3.87;;;;;;;;;;5077996;28;20251;-84
2023/10/23 09:46:32;;;;;;;4.50;3.53;;;;;;;;;;5074126;28;20715;-84
2023/10/23 09:49:03;;;;;;;5.23;3.77;;;;;;;;;;5074237;28;20232;-84
2023/10/23 09:51:30;;;;;;;6.90;3.63;;;;;;;;;;5074413;28;20261;-84
2023/10/23 09:53:59;;;;;;;6.23;3.20;;;;;;;;;;5074849;28;20197;-85
2023/10/23 09:56:30;;;;;;;8.07;3.80;;;;;;;;;;5074404;28;20237;-85
2023/10/23 09:58:59;;;;;;;7.30;3.37;;;;;;;;;;5075196;28;20248;-85
2023/10/23 10:01:29;;;;;;;3.90;3.30;;;;;;;;;;5073778;28;20237;-85
2023/10/23 10:03:59;;;;;;;4.37;3.50;;;;;;;;;;5055272;28;20198;-85
2023/10/23 10:06:27;;;;;;;3.47;3.17;;;;;;;;;;5053167;28;20233;-85
2023/10/23 10:08:55;;;;;;;5.70;3.30;;;;;;;;;;5053809;28;20237;-85
2023/10/23 10:11:22;;;;;;;7.90;3.63;;;;;;;;;;5053238;28;20230;-85
2023/10/23 10:13:50;;;;;;;3.60;3.30;;;;;;;;;;5053876;28;20213;-85
2023/10/23 10:16:17;;;;;;;7.27;3.90;;;;;;;;;;5053215;28;20642;-85
2023/10/23 10:18:44;;;;;;;8.53;3.60;;;;;;;;;;5053270;28;20226;-85
2023/10/23 10:21:14;;;;;;;3.83;2.70;;;;;;;;;;5052828;28;20230;-84
2023/10/23 10:23:41;;;;;;;3.70;3.20;;;;;;;;;;5053188;28;20611;-85
2023/10/23 10:26:08;;;;;;;3.33;3.03;;;;;;;;;;5053319;28;20234;-84
2023/10/23 10:28:38;;;;;;;3.37;2.70;;;;;;;;;;5053375;28;20234;-84
2023/10/23 10:31:05;;;;;;;3.73;2.40;;;;;;;;;;5053082;28;20233;-84
2023/10/23 10:33:33;;;;;;;4.70;2.70;;;;;;;;;;5053382;28;20216;-85
2023/10/23 10:36:01;;;;;;;4.97;2.50;;;;;;;;;;5052911;28;20234;-85
2023/10/23 10:38:30;;;;;;;2.80;2.20;;;;;;;;;;5052887;28;20210;-85
2023/10/23 10:40:58;;;;;;;5.00;2.50;;;;;;;;;;5052792;28;20288;-84
2023/10/23 10:43:26;;;;;;;2.83;2.23;;;;;;;;;;5052774;28;20205;-85
2023/10/23 10:45:53;;;;;;;3.30;2.17;;;;;;;;;;5052524;28;20237;-85
2023/10/23 10:48:20;;;;;;;3.27;2.70;;;;;;;;;;5052533;28;20593;-85
2023/10/23 10:50:48;;;;;;;3.07;1.87;;;;;;;;;;5052540;28;20616;-85
2023/10/23 10:53:15;;;;;;;5.30;2.00;;;;;;;;;;5052880;28;20210;-85
2023/10/23 10:55:46;;;;;;;3.07;1.57;;;;;;;;;;5052212;28;20230;-85
2023/10/23 10:58:13;;;;;;;3.50;2.10;;;;;;;;;;5052243;28;20661;-85
2023/10/23 11:00:40;;;;;;;5.10;1.80;;;;;;;;;;5051978;28;20723;-85
2023/10/23 11:03:07;;;;;;;3.90;1.60;;;;;;;;;;5064877;28;20201;-85
2023/10/23 11:05:36;;;;;;;1.93;1.67;;;;;;;;;;5071896;28;20256;-84
2023/10/23 11:08:03;;;;;;;3.77;1.83;;;;;;;;;;5072592;28;20233;-84
2023/10/23 11:10:31;;;;;;;2.57;1.40;;;;;;;;;;5071575;28;20279;-85
2023/10/23 11:12:59;;;;;;;2.13;1.90;;;;;;;;;;5072703;28;20236;-85
2023/10/23 11:15:26;;;;;;;2.33;1.50;;;;;;;;;;5071722;28;20233;-85
2023/10/23 11:17:54;;;;;;;6.43;1.60;;;;;;;;;;5072579;28;20231;-85
2023/10/23 11:20:21;;;;;;;4.67;1.70;;;;;;;;;;5071636;28;20225;-85
2023/10/23 11:22:48;;;;;;;6.07;1.90;;;;;;;;;;5072227;28;20221;-85
2023/10/23 11:25:17;;;;;;;2.23;1.50;;;;;;;;;;5071777;28;20197;-85
2023/10/23 11:27:46;;;;;;;5.33;1.43;;;;;;;;;;5071767;28;20236;-84
2023/10/23 11:30:14;;;;;;;2.50;1.70;;;;;;;;;;5071397;28;20229;-85
2023/10/23 11:32:44;;;;;;;1.40;1.30;;;;;;;;;;5071674;28;20873;-85
2023/10/23 11:35:11;;;;;;;3.37;1.50;;;;;;;;;;5071535;28;20202;-85
2023/10/23 11:37:38;;;;;;;1.60;1.50;;;;;;;;;;5071781;28;20225;-84
2023/10/23 11:40:09;;;;;;;1.47;1.37;;;;;;;;;;5071463;28;20792;-85
2023/10/23 11:42:43;;;;;;;1.63;1.40;;;;;;;;;;5071392;28;20229;-85
2023/10/23 11:45:11;;;;;;;4.00;2.17;;;;;;;;;;5071339;28;20206;-84
2023/10/23 11:47:39;;;;;;;2.93;1.90;;;;;;;;;;5071424;28;20240;-85
2023/10/23 11:50:10;;;;;;;2.83;1.40;;;;;;;;;;5071119;28;20252;-84
2023/10/23 11:52:37;;;;;;;3.03;1.53;;;;;;;;;;5071846;28;20205;-85
2023/10/23 11:55:06;;;;;;;2.67;1.60;;;;;;;;;;5070999;28;20209;-85
2023/10/23 11:57:33;;;;;;;2.60;1.37;;;;;;;;;;5071596;28;20259;-85
2023/10/23 12:00:06;;;;;;;6.53;1.60;;;;;;;;;;5070660;28;20259;-85
2023/10/23 12:02:33;;;;;;;4.83;1.93;;;;;;;;;;5062847;28;20291;-85
2023/10/23 12:05:02;;;;;;;3.33;1.60;;;;;;;;;;5050994;28;20214;-85
2023/10/23 12:07:29;;;;;;;4.30;2.00;;;;;;;;;;5050372;28;20271;-84
2023/10/23 12:09:55;;;;;;;4.17;1.60;;;;;;;;;;5050267;28;20225;-85
2023/10/23 12:12:22;;;;;;;2.87;1.60;;;;;;;;;;5050112;28;20298;-84
2023/10/23 12:14:49;;;;;;;1.50;1.37;;;;;;;;;;5050555;28;20209;-85
2023/10/23 12:17:16;;;;;;;2.63;1.40;;;;;;;;;;5050387;28;20233;-85
2023/10/23 12:19:44;;;;;;;2.83;2.00;;;;;;;;;;5051185;28;20233;-84
2023/10/23 12:22:12;;;;;;;4.63;1.93;;;;;;;;;;5050038;28;20234;-86
2023/10/23 12:24:39;;;;;;;4.87;1.80;;;;;;;;;;5050816;28;20210;-85
2023/10/23 12:27:06;;;;;;;3.87;1.80;;;;;;;;;;5049806;28;20233;-85
2023/10/23 12:29:33;;;;;;;3.83;1.90;;;;;;;;;;5050794;28;20317;-85
2023/10/23 12:32:00;;;;;;;4.50;2.07;;;;;;;;;;5050497;28;20234;-85
2023/10/23 12:34:30;;;;;;;2.97;1.70;;;;;;;;;;5051151;28;20210;-85
2023/10/23 12:36:57;;;;;;;4.93;2.07;;;;;;;;;;5050539;28;20240;-85
2023/10/23 12:39:26;;;;;;;3.70;1.70;;;;;;;;;;5050843;28;21038;-85
2023/10/23 12:41:53;;;;;;;1.53;1.37;;;;;;;;;;5050289;28;20246;-85
2023/10/23 12:44:20;;;;;;;2.57;1.60;;;;;;;;;;5050817;28;20209;-85
2023/10/23 12:46:47;;;;;;;5.20;2.03;;;;;;;;;;5050580;28;20237;-85
2023/10/23 12:49:14;;;;;;;3.83;1.83;;;;;;;;;;5050792;28;20594;-85
2023/10/23 12:51:41;;;;;;;1.80;1.60;;;;;;;;;;5050410;28;20296;-85
2023/10/23 12:54:09;;;;;;;4.07;2.13;;;;;;;;;;5051142;28;20214;-85
2023/10/23 12:56:38;;;;;;;2.13;1.67;;;;;;;;;;5050313;28;20292;-85
2023/10/23 12:59:05;;;;;;;4.03;1.90;;;;;;;;;;5053014;28;20210;-85
2023/10/23 13:01:32;;;;;;;4.37;2.17;;;;;;;;;;5051323;28;20645;-85
2023/10/23 13:03:59;;;;;;;5.27;2.20;;;;;;;;;;5050778;28;20694;-85
2023/10/23 13:06:27;;;;;;;4.90;2.00;;;;;;;;;;5049950;28;20234;-86
2023/10/23 13:08:54;;;;;;;2.53;2.17;;;;;;;;;;5050079;28;20226;-85
2023/10/23 13:11:22;;;;;;;5.17;3.17;;;;;;;;;;5049846;28;20727;-87
2023/10/23 13:13:50;;;;;;;6.63;3.30;;;;;;;;;;5050422;28;20267;-86
2023/10/23 13:16:17;;;;;;;5.17;2.40;;;;;;;;;;5050374;28;20234;-84
2023/10/23 13:18:44;;;;;;;2.57;2.03;;;;;;;;;;5049868;28;20226;-84
2023/10/23 13:21:11;;;;;;;5.90;2.50;;;;;;;;;;5051761;28;20237;-84
2023/10/23 13:23:38;;;;;;;3.83;2.73;;;;;;;;;;5053771;28;20228;-85
2023/10/23 13:26:05;;;;;;;3.87;2.27;;;;;;;;;;5053591;28;20230;-86
2023/10/23 13:28:33;;;;;;;4.70;1.87;;;;;;;;;;5053654;28;20577;-86
2023/10/23 13:31:02;;;;;;;2.67;1.83;;;;;;;;;;5053823;28;20226;-86
2023/10/23 13:33:29;;;;;;;2.87;1.90;;;;;;;;;;5054290;28;20213;-86
2023/10/23 13:35:56;;;;;;;4.77;2.13;;;;;;;;;;5053880;28;20245;-85
2023/10/23 13:38:23;;;;;;;1.70;1.60;;;;;;;;;;5053935;28;20220;-85
2023/10/23 13:40:51;;;;;;;5.67;1.90;;;;;;;;;;5053398;28;20226;-85
2023/10/23 13:43:18;;;;;;;1.90;1.80;;;;;;;;;;5053844;28;20749;-85
2023/10/23 13:45:46;;;;;;;7.87;1.80;;;;;;;;;;5053166;28;20238;-86
2023/10/23 13:48:14;;;;;;;3.30;2.10;;;;;;;;;;5054157;28;20206;-86
2023/10/23 13:50:41;;;;;;;5.10;1.87;;;;;;;;;;5053597;28;20225;-85
2023/10/23 13:53:08;;;;;;;2.43;1.67;;;;;;;;;;5054010;28;20213;-85
2023/10/23 13:55:35;;;;;;;3.30;1.90;;;;;;;;;;5053172;28;20722;-86
2023/10/23 13:58:02;;;;;;;1.80;1.50;;;;;;;;;;5054064;28;20206;-85
2023/10/23 14:00:30;;;;;;;3.40;1.60;;;;;;;;;;5052968;28;20239;-85
2023/10/23 14:02:57;;;;;;;3.40;1.97;;;;;;;;;;5053487;28;20210;-85
2023/10/23 14:05:25;;;;;;;2.97;2.10;;;;;;;;;;5052996;28;20230;-85
2023/10/23 14:07:52;;;;;;;1.97;1.87;;;;;;;;;;5053607;28;20218;-85
2023/10/23 14:10:19;;;;;;;3.30;2.43;;;;;;;;;;5052996;28;20233;-85
2023/10/23 14:12:46;;;;;;;2.33;2.03;;;;;;;;;;5053445;28;20210;-86
2023/10/23 14:15:13;;;;;;;1.93;1.80;;;;;;;;;;5052953;28;20210;-85
2023/10/23 14:17:41;;;;;;;2.80;2.13;;;;;;;;;;5050710;28;20210;-85
2023/10/23 14:20:08;;;;;;;3.33;2.20;;;;;;;;;;5046232;28;20221;-86
2023/10/23 14:22:38;;;;;;;2.80;2.27;;;;;;;;;;5069925;28;20209;-86
2023/10/23 14:25:06;;;;;;;2.07;1.80;;;;;;;;;;5059163;28;20209;-84
2023/10/23 14:27:33;;;;;;;5.13;2.13;;;;;;;;;;5071032;28;20209;-85
2023/10/23 14:30:00;;;;;;;3.47;2.10;;;;;;;;;;5053773;28;20241;-86
2023/10/23 14:32:27;;;;;;;2.27;2.07;;;;;;;;;;5054649;28;20655;-85
2023/10/23 14:34:54;;;;;;;4.73;2.07;;;;;;;;;;5052379;28;20657;-84
2023/10/23 14:37:21;;;;;;;3.10;1.93;;;;;;;;;;5051623;28;20230;-85
2023/10/23 14:39:50;;;;;;;2.37;2.17;;;;;;;;;;5052360;28;20735;-87
2023/10/23 14:42:17;;;;;;;2.77;2.03;;;;;;;;;;5051880;28;20237;-87
2023/10/23 14:44:44;;;;;;;2.20;2.00;;;;;;;;;;5052103;28;20665;-87